Time;durP1;ratioP1;P1;durP2;ratioP2;P2;SDS_P1;SDS_P2;PMS_P1;PMS_P2;Temp;Humidity;BMP_temperature;BMP_pressure;BME280_temperature;BME280_humidity;BME280_pressure;Samples;Min_cycle;Max_cycle;Signal;HPM_P1;HPM_P2
2023/09/17 00:00:09;;;;;;;1.43;0.90;;;21.10;98.20;;;;;;4933825;28;20471;-79
2023/09/17 00:02:36;;;;;;;1.47;0.90;;;21.10;98.20;;;;;;4932573;28;20474;-80
2023/09/17 00:05:04;;;;;;;1.50;0.90;;;21.10;98.20;;;;;;4928956;28;20494;-79
2023/09/17 00:07:31;;;;;;;1.47;0.90;;;21.10;98.20;;;;;;4939090;28;20487;-78
2023/09/17 00:09:59;;;;;;;1.43;0.90;;;21.10;98.20;;;;;;4936109;28;20459;-78
2023/09/17 00:12:26;;;;;;;1.43;0.90;;;21.00;98.20;;;;;;4937882;28;20487;-79
2023/09/17 00:14:53;;;;;;;1.50;1.00;;;21.00;98.20;;;;;;4936715;28;20495;-77
2023/09/17 00:17:20;;;;;;;1.50;1.00;;;21.00;98.20;;;;;;4936713;28;20490;-79
2023/09/17 00:19:47;;;;;;;1.50;1.20;;;21.00;98.20;;;;;;4936909;28;20527;-83
2023/09/17 00:22:14;;;;;;;1.50;0.90;;;21.00;98.20;;;;;;4952493;28;20474;-82
2023/09/17 00:24:41;;;;;;;1.43;0.90;;;21.00;98.20;;;;;;4942030;28;20551;-81
2023/09/17 00:27:09;;;;;;;1.47;0.90;;;20.90;98.20;;;;;;4932071;28;20482;-79
2023/09/17 00:29:36;;;;;;;1.50;0.90;;;20.90;98.20;;;;;;4942138;28;20468;-80
2023/09/17 00:32:03;;;;;;;1.50;0.90;;;20.90;98.20;;;;;;4934903;28;20531;-80
2023/09/17 00:34:30;;;;;;;1.47;0.90;;;20.90;98.20;;;;;;4945440;28;20547;-80
2023/09/17 00:36:57;;;;;;;1.50;0.90;;;20.80;98.20;;;;;;4935257;28;20486;-80
2023/09/17 00:39:23;;;;;;;1.50;0.90;;;20.80;98.20;;;;;;4945915;28;20495;-80
2023/09/17 00:41:52;;;;;;;1.47;0.90;;;20.80;98.20;;;;;;4932705;28;20537;-78
2023/09/17 00:44:20;;;;;;;1.47;0.90;;;20.80;98.20;;;;;;4947691;28;20483;-79
2023/09/17 00:46:47;;;;;;;1.50;0.90;;;20.80;98.20;;;;;;4931344;28;20874;-80
2023/09/17 00:49:14;;;;;;;1.50;1.10;;;20.80;98.20;;;;;;4942301;28;20822;-77
2023/09/17 00:51:41;;;;;;;1.50;1.10;;;20.90;98.20;;;;;;4923363;28;20486;-79
2023/09/17 00:54:10;;;;;;;1.50;0.90;;;20.80;98.20;;;;;;4939074;28;20542;-78
2023/09/17 00:56:37;;;;;;;1.50;0.90;;;20.90;98.20;;;;;;4929863;28;20491;-79
2023/09/17 00:59:06;;;;;;;1.50;1.00;;;20.90;98.20;;;;;;4943174;28;20485;-79
2023/09/17 01:01:34;;;;;;;1.50;0.90;;;20.80;98.20;;;;;;4928964;28;20501;-80
2023/09/17 01:04:02;;;;;;;1.47;0.90;;;20.80;98.20;;;;;;4933458;28;20495;-79
2023/09/17 01:06:29;;;;;;;1.50;0.90;;;20.80;98.20;;;;;;4929155;28;20565;-80
2023/09/17 01:08:56;;;;;;;1.50;1.00;;;20.80;98.20;;;;;;4942360;28;20462;-79
2023/09/17 01:11:24;;;;;;;1.50;0.90;;;20.80;98.20;;;;;;4933031;28;20481;-79
2023/09/17 01:13:58;;;;;;;1.50;0.90;;;20.80;98.20;;;;;;4953506;28;20484;-79
2023/09/17 01:16:26;;;;;;;1.50;0.90;;;20.80;98.20;;;;;;4932047;28;20473;-80
2023/09/17 01:18:55;;;;;;;1.47;0.90;;;20.80;98.20;;;;;;4946172;28;20727;-77
2023/09/17 01:21:27;;;;;;;1.47;0.90;;;20.80;98.20;;;;;;4932452;28;20480;-77
2023/09/17 01:24:08;;;;;;;1.50;1.00;;;20.80;98.20;;;;;;4940425;28;20502;-78
2023/09/17 01:26:36;;;;;;;1.47;0.90;;;20.70;98.20;;;;;;4927030;28;20490;-77
2023/09/17 01:29:05;;;;;;;1.60;1.20;;;20.70;98.20;;;;;;4949817;28;20526;-78
2023/09/17 01:31:34;;;;;;;1.50;0.90;;;20.60;98.20;;;;;;4929638;28;20493;-79
2023/09/17 01:34:01;;;;;;;1.50;0.90;;;20.60;98.20;;;;;;4940705;28;20523;-78
2023/09/17 01:36:33;;;;;;;1.50;0.90;;;20.60;98.20;;;;;;4929080;28;20497;-77
2023/09/17 01:39:05;;;;;;;1.50;0.90;;;20.60;98.20;;;;;;4944376;28;20498;-77
2023/09/17 01:41:35;;;;;;;1.50;0.90;;;20.50;98.20;;;;;;4929653;28;20486;-77
2023/09/17 01:44:05;;;;;;;1.43;0.90;;;20.50;98.20;;;;;;4944845;28;20487;-77
2023/09/17 01:46:34;;;;;;;1.50;0.90;;;20.50;98.20;;;;;;4930856;28;20530;-78
2023/09/17 01:49:01;;;;;;;1.50;0.90;;;20.40;98.20;;;;;;4941288;28;20468;-77
2023/09/17 01:51:29;;;;;;;1.50;0.90;;;20.40;98.20;;;;;;4932186;28;20522;-77
2023/09/17 01:53:57;;;;;;;1.50;0.90;;;20.40;98.20;;;;;;4947420;28;20491;-77
2023/09/17 01:56:23;;;;;;;1.50;0.90;;;20.40;98.20;;;;;;4928099;28;20570;-78
2023/09/17 01:58:50;;;;;;;1.47;0.90;;;20.40;98.20;;;;;;4941597;28;20529;-79
2023/09/17 02:01:19;;;;;;;1.50;0.90;;;20.40;98.20;;;;;;4931078;28;20485;-78
2023/09/17 02:03:45;;;;;;;1.50;0.90;;;20.40;98.20;;;;;;4955030;28;21068;-76
2023/09/17 02:06:12;;;;;;;1.50;0.93;;;20.40;98.20;;;;;;4929818;28;20475;-78
2023/09/17 02:08:39;;;;;;;1.50;0.90;;;20.40;98.20;;;;;;4950931;28;20499;-77
2023/09/17 02:11:06;;;;;;;1.50;1.17;;;20.50;98.20;;;;;;4930774;28;20941;-78
2023/09/17 02:13:33;;;;;;;1.50;0.90;;;20.50;98.20;;;;;;4949108;28;20494;-79
2023/09/17 02:15:59;;;;;;;1.50;0.90;;;20.50;98.20;;;;;;4933869;28;20475;-77
2023/09/17 02:18:28;;;;;;;1.50;0.90;;;20.50;98.20;;;;;;4945062;28;20488;-78
2023/09/17 02:20:54;;;;;;;1.47;0.90;;;20.50;98.20;;;;;;4930702;28;20471;-76
2023/09/17 02:23:20;;;;;;;1.50;0.90;;;20.50;98.20;;;;;;4950788;28;21372;-77
2023/09/17 02:25:47;;;;;;;1.47;0.90;;;20.50;98.20;;;;;;4936992;29;20495;-79
2023/09/17 02:28:14;;;;;;;1.50;0.90;;;20.50;98.20;;;;;;4925605;29;20716;-79
2023/09/17 02:30:41;;;;;;;1.47;0.90;;;20.50;98.20;;;;;;4972479;23;20564;-76
2023/09/17 02:33:10;;;;;;;1.50;0.90;;;20.50;98.20;;;;;;4967891;28;20481;-76
2023/09/17 02:35:38;;;;;;;1.60;1.30;;;20.50;98.20;;;;;;4971351;28;20552;-76
2023/09/17 02:38:05;;;;;;;1.50;1.00;;;20.50;98.20;;;;;;4982118;28;20485;-75
2023/09/17 02:40:33;;;;;;;1.50;0.90;;;20.50;98.20;;;;;;4972024;28;20498;-74
2023/09/17 02:43:01;;;;;;;1.50;0.93;;;20.50;98.20;;;;;;4975869;28;20477;-75
2023/09/17 02:45:28;;;;;;;1.50;0.90;;;20.40;98.20;;;;;;4973829;28;20961;-75
2023/09/17 02:47:54;;;;;;;1.50;1.10;;;20.40;98.20;;;;;;4977326;28;20493;-76
2023/09/17 02:50:22;;;;;;;1.50;0.90;;;20.40;98.20;;;;;;4972701;28;20509;-75
2023/09/17 02:52:52;;;;;;;1.50;1.00;;;20.40;98.20;;;;;;4976381;28;20484;-75
2023/09/17 02:55:19;;;;;;;1.50;1.00;;;20.40;98.20;;;;;;4978610;28;20464;-75
2023/09/17 02:57:48;;;;;;;1.50;0.90;;;20.40;98.20;;;;;;4975227;28;21053;-76
2023/09/17 03:00:17;;;;;;;1.43;0.90;;;20.40;98.20;;;;;;4965725;28;20891;-75
2023/09/17 03:02:47;;;;;;;1.50;1.00;;;20.50;98.20;;;;;;4960053;28;20719;-75
2023/09/17 03:05:14;;;;;;;1.50;1.00;;;20.50;98.20;;;;;;4976592;28;20599;-75
2023/09/17 03:07:43;;;;;;;1.50;1.00;;;20.50;98.20;;;;;;4979935;28;21007;-75
2023/09/17 03:10:12;;;;;;;1.50;0.90;;;20.50;98.20;;;;;;4970399;28;20477;-75
2023/09/17 03:12:39;;;;;;;1.50;0.90;;;20.50;98.20;;;;;;4984812;28;20484;-75
2023/09/17 03:15:07;;;;;;;1.50;0.90;;;20.50;98.20;;;;;;4972704;28;20493;-75
2023/09/17 03:17:36;;;;;;;1.50;0.90;;;20.50;98.20;;;;;;4974492;28;20489;-76
2023/09/17 03:20:13;;;;;;;1.50;0.90;;;20.50;98.20;;;;;;4974026;28;20499;-75
2023/09/17 03:22:40;;;;;;;1.50;0.90;;;20.50;98.20;;;;;;4974840;28;20575;-76
2023/09/17 03:25:09;;;;;;;1.47;0.90;;;20.50;98.20;;;;;;4973959;28;20872;-76
2023/09/17 03:27:39;;;;;;;1.50;0.90;;;20.50;98.20;;;;;;4976544;28;20564;-76
2023/09/17 03:30:08;;;;;;;1.50;0.90;;;20.50;98.20;;;;;;4974926;28;20930;-76
2023/09/17 03:32:35;;;;;;;1.47;0.90;;;20.50;98.20;;;;;;4968441;28;20490;-76
2023/09/17 03:35:03;;;;;;;1.50;0.90;;;20.50;98.20;;;;;;4971580;28;20474;-76
2023/09/17 03:37:30;;;;;;;1.50;0.90;;;20.50;98.20;;;;;;4963717;28;21067;-76
2023/09/17 03:40:10;;;;;;;1.50;0.90;;;20.50;98.20;;;;;;4971215;28;21019;-76
2023/09/17 03:42:40;;;;;;;1.50;0.90;;;20.50;98.20;;;;;;4958950;28;20469;-76
2023/09/17 03:45:11;;;;;;;1.50;0.90;;;20.50;98.20;;;;;;4972847;28;20465;-75
2023/09/17 03:47:38;;;;;;;1.47;0.90;;;20.50;98.20;;;;;;4960523;28;20984;-76
2023/09/17 03:50:08;;;;;;;1.43;0.90;;;20.50;98.20;;;;;;4969512;28;20492;-75
2023/09/17 03:52:36;;;;;;;1.50;1.00;;;20.50;98.20;;;;;;4968499;28;20508;-75
2023/09/17 03:55:05;;;;;;;1.50;0.90;;;20.40;98.20;;;;;;4964627;28;20545;-76
2023/09/17 03:57:34;;;;;;;1.50;0.90;;;20.40;98.20;;;;;;4973452;28;20493;-76
2023/09/17 04:00:06;;;;;;;1.47;0.90;;;20.40;98.20;;;;;;4973147;28;20493;-76
2023/09/17 04:02:33;;;;;;;1.50;0.90;;;20.40;98.20;;;;;;4967005;28;20485;-76
2023/09/17 04:04:59;;;;;;;1.50;0.90;;;20.40;98.20;;;;;;4977990;28;20473;-76
2023/09/17 04:07:27;;;;;;;1.47;0.93;;;20.40;98.20;;;;;;4979033;28;20532;-76
2023/09/17 04:09:53;;;;;;;1.50;1.00;;;20.40;98.20;;;;;;4967780;28;20485;-76
2023/09/17 04:12:20;;;;;;;1.50;0.90;;;20.40;98.20;;;;;;4956060;28;20480;-76
2023/09/17 04:14:47;;;;;;;1.47;0.90;;;20.40;98.20;;;;;;4963393;28;20481;-76
2023/09/17 04:17:15;;;;;;;1.80;1.53;;;20.40;98.20;;;;;;4964575;28;20487;-75
2023/09/17 04:19:42;;;;;;;1.50;0.90;;;20.40;98.20;;;;;;4967855;28;20493;-76
2023/09/17 04:22:09;;;;;;;1.50;0.90;;;20.40;98.20;;;;;;4960578;28;20987;-76
2023/09/17 04:24:38;;;;;;;1.50;0.90;;;20.40;98.20;;;;;;4967526;28;20541;-76
2023/09/17 04:27:05;;;;;;;2.50;2.30;;;20.40;98.20;;;;;;4965544;28;20483;-76
2023/09/17 04:29:32;;;;;;;1.50;0.90;;;20.40;98.20;;;;;;4964952;28;20870;-75
2023/09/17 04:31:59;;;;;;;1.50;0.90;;;20.40;98.20;;;;;;4953023;28;20482;-75
2023/09/17 04:34:27;;;;;;;1.47;0.90;;;20.40;98.20;;;;;;4965035;28;20467;-78
2023/09/17 04:36:53;;;;;;;1.50;0.90;;;20.40;98.20;;;;;;4960530;28;20967;-77
2023/09/17 04:39:20;;;;;;;1.50;0.90;;;20.40;98.20;;;;;;4977301;28;20530;-79
2023/09/17 04:41:47;;;;;;;1.50;0.90;;;20.40;98.20;;;;;;4952282;28;20506;-75
2023/09/17 04:44:14;;;;;;;1.50;0.90;;;20.40;98.20;;;;;;4971143;28;20817;-76
2023/09/17 04:46:42;;;;;;;1.50;0.90;;;20.40;98.20;;;;;;4957806;28;20517;-75
2023/09/17 04:49:09;;;;;;;1.50;1.00;;;20.40;98.20;;;;;;4965681;28;20470;-76
2023/09/17 04:51:38;;;;;;;1.50;0.90;;;20.40;98.20;;;;;;4957594;28;20493;-76
2023/09/17 04:54:05;;;;;;;1.50;0.90;;;20.40;98.20;;;;;;4969101;28;20469;-76
2023/09/17 04:56:32;;;;;;;1.50;0.90;;;20.40;98.20;;;;;;4957183;28;20576;-76
2023/09/17 05:16:08;;;;;;;1.50;1.00;;;20.10;98.20;;;;;;4956917;28;20431;-76
2023/09/17 05:18:35;;;;;;;1.50;1.00;;;20.10;98.20;;;;;;4972015;28;20976;-76
2023/09/17 05:21:01;;;;;;;1.50;0.90;;;20.10;98.20;;;;;;4951204;28;20585;-76
2023/09/17 05:23:28;;;;;;;1.50;0.90;;;20.10;98.20;;;;;;4959342;28;20552;-76
2023/09/17 05:25:56;;;;;;;1.50;1.00;;;20.10;98.20;;;;;;4955222;28;20458;-76
2023/09/17 05:28:23;;;;;;;1.50;0.90;;;20.10;98.20;;;;;;4980010;28;20502;-76
2023/09/17 05:30:50;;;;;;;1.50;1.00;;;20.00;98.20;;;;;;4949173;28;20479;-76
2023/09/17 05:33:19;;;;;;;1.50;1.00;;;20.00;98.20;;;;;;4965712;28;20461;-76
2023/09/17 05:35:45;;;;;;;1.50;0.90;;;20.00;98.20;;;;;;4960065;28;20451;-75
2023/09/17 05:38:12;;;;;;;1.50;0.97;;;20.00;98.20;;;;;;4952948;28;20488;-78
2023/09/17 05:40:39;;;;;;;1.50;0.90;;;20.00;98.20;;;;;;4965765;28;20898;-76
2023/09/17 05:43:06;;;;;;;1.50;1.00;;;20.00;98.20;;;;;;4975125;28;20487;-79
2023/09/17 05:45:33;;;;;;;1.50;0.90;;;19.90;98.20;;;;;;4968319;28;20492;-76
2023/09/17 05:48:00;;;;;;;1.70;1.20;;;19.90;98.20;;;;;;4960418;28;21035;-76
2023/09/17 05:50:28;;;;;;;1.50;0.90;;;19.90;98.20;;;;;;4964905;28;20481;-76
2023/09/17 05:52:55;;;;;;;1.50;1.00;;;19.90;98.20;;;;;;4968168;28;20485;-76
2023/09/17 05:55:22;;;;;;;1.50;0.90;;;20.00;98.20;;;;;;4969345;28;20468;-76
2023/09/17 05:57:48;;;;;;;1.50;0.90;;;20.00;98.20;;;;;;4953684;28;20487;-76
2023/09/17 06:00:16;;;;;;;1.50;0.90;;;20.00;98.20;;;;;;4959263;28;20501;-76
2023/09/17 06:02:43;;;;;;;1.50;0.90;;;20.00;98.20;;;;;;4960348;28;20482;-75
2023/09/17 06:05:10;;;;;;;1.50;0.90;;;20.00;98.20;;;;;;4958467;28;20485;-75
2023/09/17 06:07:38;;;;;;;1.50;0.90;;;20.10;98.20;;;;;;4961122;28;20493;-75
2023/09/17 06:10:06;;;;;;;1.50;0.90;;;20.10;98.20;;;;;;4962753;28;20477;-75
2023/09/17 06:12:33;;;;;;;1.50;0.90;;;20.20;98.20;;;;;;4947671;28;20546;-75
2023/09/17 06:15:00;;;;;;;1.50;0.90;;;20.30;98.20;;;;;;4962579;28;20478;-75
2023/09/17 06:17:26;;;;;;;1.50;0.90;;;20.40;98.20;;;;;;4965828;28;20875;-75
2023/09/17 06:19:53;;;;;;;1.50;0.90;;;20.50;98.20;;;;;;4964066;28;20486;-75
2023/09/17 06:22:20;;;;;;;1.50;0.90;;;20.50;98.20;;;;;;4949729;28;20486;-75
2023/09/17 06:24:48;;;;;;;1.50;1.10;;;20.60;98.20;;;;;;4962962;28;20485;-75
2023/09/17 06:27:15;;;;;;;1.50;0.90;;;20.60;98.20;;;;;;4961440;28;20476;-75
2023/09/17 06:29:41;;;;;;;1.50;0.90;;;20.70;98.20;;;;;;4965216;28;20489;-76
2023/09/17 06:32:09;;;;;;;1.60;1.20;;;20.70;98.20;;;;;;4959604;28;20485;-76
2023/09/17 06:34:36;;;;;;;1.50;0.97;;;20.70;98.20;;;;;;4969157;28;20468;-75
2023/09/17 06:37:03;;;;;;;1.50;0.93;;;20.70;98.20;;;;;;4958944;28;20992;-75
2023/09/17 06:39:30;;;;;;;1.50;0.90;;;20.80;98.20;;;;;;4966757;28;20484;-75
2023/09/17 06:41:58;;;;;;;1.50;0.93;;;21.00;98.20;;;;;;4958770;28;20492;-75
2023/09/17 06:44:24;;;;;;;1.50;0.90;;;21.10;98.20;;;;;;4969778;28;20458;-75
2023/09/17 06:46:51;;;;;;;1.50;0.90;;;21.20;98.20;;;;;;4961553;28;20865;-76
2023/09/17 06:49:18;;;;;;;1.50;0.90;;;21.30;98.20;;;;;;4966165;28;20469;-75
2023/09/17 06:51:45;;;;;;;1.50;0.90;;;21.40;98.20;;;;;;4957024;28;20468;-75
2023/09/17 06:54:12;;;;;;;1.50;0.90;;;21.50;98.20;;;;;;4967495;28;20476;-75
2023/09/17 06:56:39;;;;;;;1.50;1.00;;;21.50;98.20;;;;;;4957819;28;20536;-75
2023/09/17 06:59:07;;;;;;;1.50;0.90;;;21.50;98.20;;;;;;4969366;28;20469;-75
2023/09/17 07:01:35;;;;;;;1.60;1.10;;;21.70;98.20;;;;;;4955429;28;20501;-75
2023/09/17 07:04:02;;;;;;;1.60;1.23;;;21.70;98.20;;;;;;4968097;28;20807;-75
2023/09/17 07:06:28;;;;;;;1.50;0.90;;;21.90;98.20;;;;;;4958297;28;20523;-76
2023/09/17 07:08:57;;;;;;;1.50;0.90;;;22.00;98.20;;;;;;4969678;28;20565;-75
2023/09/17 07:11:23;;;;;;;1.50;0.90;;;22.00;98.20;;;;;;4954025;28;20492;-75
2023/09/17 07:13:50;;;;;;;1.50;0.90;;;22.10;98.20;;;;;;4972323;28;20508;-78
2023/09/17 07:16:19;;;;;;;1.50;0.90;;;22.20;98.20;;;;;;4953971;28;20489;-75
2023/09/17 07:18:46;;;;;;;2.63;2.37;;;22.20;98.20;;;;;;4968573;28;20464;-78
2023/09/17 07:21:13;;;;;;;1.50;0.90;;;22.40;98.20;;;;;;4953941;28;21150;-76
2023/09/17 07:23:40;;;;;;;1.50;0.90;;;22.50;98.20;;;;;;4962912;28;20468;-76
2023/09/17 07:26:06;;;;;;;1.50;0.90;;;22.50;98.20;;;;;;4950523;28;20578;-76
2023/09/17 07:28:33;;;;;;;1.50;1.00;;;22.70;98.20;;;;;;4969573;28;20880;-76
2023/09/17 07:31:00;;;;;;;1.50;0.90;;;22.80;98.20;;;;;;4954404;28;20479;-76
2023/09/17 07:33:28;;;;;;;1.50;0.90;;;22.90;98.20;;;;;;4960570;28;20501;-75
2023/09/17 07:35:55;;;;;;;1.50;0.90;;;23.00;98.20;;;;;;4953396;28;20461;-76
2023/09/17 07:38:22;;;;;;;1.50;0.90;;;23.20;98.20;;;;;;4976938;28;20484;-76
2023/09/17 07:40:49;;;;;;;1.50;0.90;;;23.30;98.20;;;;;;4958456;28;20494;-76
2023/09/17 07:43:16;;;;;;;1.60;1.10;;;23.40;98.20;;;;;;4953544;28;21026;-75
2023/09/17 07:45:42;;;;;;;1.50;0.90;;;23.50;98.20;;;;;;4966291;28;20460;-76
2023/09/17 07:48:09;;;;;;;1.50;0.90;;;23.60;98.20;;;;;;4966424;28;20482;-75
2023/09/17 07:50:39;;;;;;;1.50;0.90;;;23.60;98.20;;;;;;4966161;28;20484;-75
2023/09/17 07:53:07;;;;;;;1.60;1.17;;;23.80;98.20;;;;;;4961777;28;20484;-75
2023/09/17 07:55:34;;;;;;;1.50;0.90;;;23.90;98.20;;;;;;4962989;28;20560;-75
2023/09/17 07:58:01;;;;;;;1.50;0.90;;;24.10;98.20;;;;;;4970041;28;20575;-75
2023/09/17 08:00:27;;;;;;;1.60;1.10;;;24.20;98.20;;;;;;4965975;28;20493;-75
2023/09/17 08:02:54;;;;;;;1.50;0.90;;;24.30;98.20;;;;;;4966301;28;20485;-75
2023/09/17 08:05:21;;;;;;;1.50;0.90;;;24.40;98.20;;;;;;4965116;28;20940;-75
2023/09/17 08:07:50;;;;;;;1.50;0.90;;;24.50;98.20;;;;;;4967124;28;20537;-75
2023/09/17 08:10:17;;;;;;;1.50;0.90;;;24.50;98.20;;;;;;4966161;28;20827;-75
2023/09/17 08:12:47;;;;;;;1.50;0.90;;;24.50;98.20;;;;;;4962335;28;20491;-75
2023/09/17 08:15:14;;;;;;;1.50;0.90;;;24.50;98.20;;;;;;4961733;28;20470;-75
2023/09/17 08:17:42;;;;;;;1.50;0.90;;;24.60;98.20;;;;;;4943775;28;20997;-75
2023/09/17 08:20:10;;;;;;;1.50;0.90;;;24.70;98.20;;;;;;4962481;28;21051;-75
2023/09/17 08:22:37;;;;;;;1.50;0.90;;;24.80;98.20;;;;;;4965291;28;20478;-75
2023/09/17 08:25:33;;;;;;;1.50;0.80;;;24.80;98.20;;;;;;4971781;28;20578;-75
2023/09/17 08:28:00;;;;;;;1.50;0.90;;;25.00;98.20;;;;;;4959716;28;20498;-76
2023/09/17 08:30:27;;;;;;;1.50;0.90;;;25.00;98.20;;;;;;4967730;28;21073;-76
2023/09/17 08:32:57;;;;;;;1.50;0.90;;;25.10;98.20;;;;;;4965643;28;20485;-77
2023/09/17 08:35:24;;;;;;;1.53;1.00;;;25.20;98.20;;;;;;4969207;28;20465;-77
2023/09/17 08:37:51;;;;;;;1.50;0.80;;;25.20;98.20;;;;;;4951418;28;20541;-76
2023/09/17 08:40:24;;;;;;;1.50;0.90;;;25.30;98.20;;;;;;4964952;28;20537;-76
2023/09/17 08:42:55;;;;;;;1.50;0.90;;;25.40;98.20;;;;;;4970595;28;20517;-76
2023/09/17 08:45:23;;;;;;;1.50;0.90;;;25.50;98.20;;;;;;4961546;28;20961;-76
2023/09/17 08:47:51;;;;;;;1.50;0.90;;;25.60;98.20;;;;;;4965099;28;20568;-77
2023/09/17 08:50:18;;;;;;;1.50;0.90;;;25.50;98.20;;;;;;4962692;28;21023;-76
2023/09/17 08:52:54;;;;;;;1.50;0.90;;;25.50;98.20;;;;;;4966958;28;20579;-76
2023/09/17 08:55:21;;;;;;;1.50;0.90;;;25.70;98.20;;;;;;4964080;28;20463;-76
2023/09/17 08:57:58;;;;;;;1.50;0.90;;;25.80;98.20;;;;;;4953471;28;20648;-77
2023/09/17 09:00:27;;;;;;;1.50;1.00;;;25.90;98.20;;;;;;4965389;28;20489;-76
2023/09/17 09:03:00;;;;;;;1.50;0.90;;;26.10;98.20;;;;;;4971014;28;20560;-76
2023/09/17 09:05:28;;;;;;;1.50;0.87;;;26.20;98.20;;;;;;4963616;28;20533;-76
2023/09/17 09:07:56;;;;;;;1.50;0.80;;;26.30;98.20;;;;;;4965055;28;20997;-76
2023/09/17 09:10:36;;;;;;;1.50;0.90;;;26.40;98.20;;;;;;4962977;28;20749;-76
2023/09/17 09:13:05;;;;;;;1.50;0.90;;;26.40;98.20;;;;;;4958668;28;21031;-76
2023/09/17 09:15:32;;;;;;;1.50;0.87;;;26.50;98.20;;;;;;4969329;28;20493;-77
2023/09/17 09:17:58;;;;;;;1.50;0.80;;;26.70;98.20;;;;;;4962164;28;20488;-76
2023/09/17 09:20:26;;;;;;;1.50;0.87;;;26.80;98.20;;;;;;4967210;28;20696;-77
2023/09/17 09:22:53;;;;;;;1.50;0.80;;;26.90;98.20;;;;;;4955947;28;20907;-76
2023/09/17 09:25:20;;;;;;;1.50;0.90;;;27.00;98.20;;;;;;4975856;28;20477;-76
2023/09/17 09:27:48;;;;;;;1.50;0.90;;;27.10;98.20;;;;;;4968186;28;20569;-76
2023/09/17 09:30:16;;;;;;;1.50;0.87;;;27.20;98.20;;;;;;4964105;28;20485;-76
2023/09/17 09:32:44;;;;;;;1.50;0.80;;;27.20;98.20;;;;;;4965495;28;20889;-76
2023/09/17 09:35:11;;;;;;;1.50;0.90;;;27.20;98.20;;;;;;4965194;28;20473;-76
2023/09/17 09:37:38;;;;;;;1.50;0.83;;;27.20;98.20;;;;;;4979161;28;20539;-77
2023/09/17 09:40:07;;;;;;;1.50;0.90;;;27.30;98.20;;;;;;4966908;28;20489;-77
2023/09/17 09:42:42;;;;;;;1.60;0.97;;;27.30;98.20;;;;;;4976907;28;20473;-78
2023/09/17 09:45:17;;;;;;;1.50;0.90;;;27.50;98.20;;;;;;4963191;28;20454;-77
2023/09/17 09:47:52;;;;;;;1.50;0.80;;;27.60;98.20;;;;;;4963582;28;20503;-76
2023/09/17 09:50:25;;;;;;;1.50;0.80;;;27.70;98.20;;;;;;4961987;28;21020;-77
2023/09/17 09:52:59;;;;;;;1.50;0.90;;;27.80;98.20;;;;;;4969999;28;20504;-76
2023/09/17 09:55:27;;;;;;;1.50;0.80;;;27.90;98.20;;;;;;4962918;28;21181;-76
2023/09/17 09:58:18;;;;;;;1.50;0.80;;;28.00;98.20;;;;;;4962412;28;20562;-77
2023/09/17 10:01:00;;;;;;;1.50;0.83;;;28.20;98.20;;;;;;4971762;28;21015;-75
2023/09/17 10:03:28;;;;;;;1.50;0.87;;;28.10;98.20;;;;;;4957851;28;20473;-76
2023/09/17 10:06:03;;;;;;;1.50;0.80;;;28.30;98.20;;;;;;4958067;28;21016;-77
2023/09/17 10:08:31;;;;;;;1.50;1.10;;;28.40;97.30;;;;;;4971753;28;20478;-77
2023/09/17 10:10:59;;;;;;;1.50;1.07;;;28.50;96.80;;;;;;4954570;28;20703;-77
2023/09/17 10:13:26;;;;;;;1.50;0.83;;;28.60;96.80;;;;;;4971562;28;20968;-78
2023/09/17 10:16:02;;;;;;;1.50;0.80;;;28.70;96.20;;;;;;4962617;28;20465;-76
2023/09/17 10:18:32;;;;;;;1.50;0.80;;;28.90;96.90;;;;;;4977335;28;20457;-77
2023/09/17 10:21:01;;;;;;;1.50;1.00;;;29.00;95.20;;;;;;4962768;28;20517;-77
2023/09/17 10:23:30;;;;;;;1.47;0.80;;;29.20;94.50;;;;;;4986453;28;20465;-77
2023/09/17 10:25:59;;;;;;;1.50;0.80;;;29.20;94.80;;;;;;4963314;28;20468;-77
2023/09/17 10:28:27;;;;;;;1.50;0.80;;;29.30;94.40;;;;;;4978585;28;20466;-79
2023/09/17 10:30:55;;;;;;;1.50;0.80;;;29.30;94.20;;;;;;4959287;28;20528;-77
2023/09/17 10:33:24;;;;;;;1.47;0.80;;;29.40;93.50;;;;;;4974846;28;20984;-78
2023/09/17 10:35:55;;;;;;;1.50;0.80;;;29.40;94.10;;;;;;4961431;28;20505;-77
2023/09/17 10:38:24;;;;;;;1.50;1.00;;;29.40;93.70;;;;;;4976517;28;20465;-78
2023/09/17 10:40:51;;;;;;;1.50;0.83;;;29.60;94.10;;;;;;4959118;28;20497;-76
2023/09/17 10:43:19;;;;;;;1.43;0.80;;;29.70;93.30;;;;;;4977830;28;20555;-77
2023/09/17 10:45:48;;;;;;;1.47;0.80;;;29.70;93.40;;;;;;4970715;28;20465;-77
2023/09/17 10:48:15;;;;;;;1.47;0.80;;;29.80;93.00;;;;;;4986308;28;20559;-78
2023/09/17 10:50:42;;;;;;;1.43;0.80;;;29.90;93.20;;;;;;4970603;28;20489;-78
2023/09/17 10:53:11;;;;;;;1.50;0.80;;;30.00;92.70;;;;;;4961871;28;20540;-77
2023/09/17 10:55:44;;;;;;;1.47;0.80;;;30.00;91.40;;;;;;4966308;28;20848;-77
2023/09/17 10:58:21;;;;;;;1.47;0.80;;;30.00;91.80;;;;;;4974598;28;20486;-77
2023/09/17 11:00:49;;;;;;;1.50;0.80;;;30.00;91.20;;;;;;4955239;28;21042;-77
2023/09/17 11:03:20;;;;;;;1.47;0.80;;;29.80;92.60;;;;;;4961015;28;20458;-77
2023/09/17 11:05:49;;;;;;;1.47;0.80;;;29.80;93.00;;;;;;4963169;28;21092;-77
2023/09/17 11:08:18;;;;;;;1.47;0.90;;;29.70;93.00;;;;;;4975512;28;20469;-78
2023/09/17 11:10:45;;;;;;;1.50;0.80;;;29.70;93.20;;;;;;4968607;28;20481;-77
2023/09/17 11:13:13;;;;;;;1.50;0.80;;;29.80;93.00;;;;;;4976550;28;20485;-77
2023/09/17 11:15:40;;;;;;;1.50;0.80;;;29.90;91.20;;;;;;4971223;28;20461;-76
2023/09/17 11:18:08;;;;;;;1.50;0.90;;;30.10;91.50;;;;;;4964322;28;20484;-77
2023/09/17 11:20:36;;;;;;;1.50;0.90;;;30.30;91.00;;;;;;4967015;28;20580;-77
2023/09/17 11:23:04;;;;;;;1.43;0.90;;;30.50;90.50;;;;;;4954762;28;20490;-77
2023/09/17 11:25:37;;;;;;;1.40;0.80;;;30.60;89.40;;;;;;4973935;28;20476;-77
2023/09/17 11:28:13;;;;;;;1.43;0.90;;;30.60;88.40;;;;;;4972349;28;20958;-76
2023/09/17 11:30:59;;;;;;;1.50;0.90;;;30.70;89.10;;;;;;4968978;28;20900;-77
2023/09/17 11:33:27;;;;;;;1.47;0.80;;;30.60;88.40;;;;;;4961358;28;20559;-77
2023/09/17 11:35:55;;;;;;;1.50;1.00;;;30.60;88.80;;;;;;4965151;28;20686;-77
2023/09/17 11:38:28;;;;;;;1.50;0.90;;;30.60;88.30;;;;;;4977664;28;20572;-77
2023/09/17 11:41:07;;;;;;;1.47;0.80;;;30.70;88.60;;;;;;4963188;28;20551;-77
2023/09/17 11:43:36;;;;;;;1.47;0.80;;;30.80;88.00;;;;;;4984892;28;20534;-77
2023/09/17 11:46:05;;;;;;;1.70;1.33;;;31.00;87.50;;;;;;4964169;28;20843;-77
2023/09/17 11:48:33;;;;;;;1.47;0.80;;;31.00;88.40;;;;;;4976663;28;20554;-77
2023/09/17 11:51:20;;;;;;;1.47;0.80;;;31.10;87.50;;;;;;4963991;28;20536;-77
2023/09/17 11:53:55;;;;;;;1.47;0.80;;;31.20;86.80;;;;;;4981015;28;20821;-77
2023/09/17 11:56:24;;;;;;;1.50;0.80;;;31.20;88.40;;;;;;4963768;28;22085;-77
2023/09/17 11:59:11;;;;;;;1.47;0.80;;;31.30;87.80;;;;;;4974165;28;20469;-78
2023/09/17 12:01:41;;;;;;;1.50;0.90;;;31.40;85.70;;;;;;4969450;28;20623;-76
2023/09/17 12:04:09;;;;;;;2.93;2.73;;;31.60;85.50;;;;;;4978853;28;20473;-78
2023/09/17 12:06:39;;;;;;;1.50;0.80;;;31.60;85.60;;;;;;4965236;28;20494;-78
2023/09/17 12:12:10;;;;;;;1.47;0.80;;;31.80;85.60;;;;;;4958665;28;20534;-78
2023/09/17 12:14:41;;;;;;;1.43;0.80;;;31.80;84.20;;;;;;4969122;28;20552;-75
2023/09/17 12:17:08;;;;;;;1.50;1.10;;;31.80;84.60;;;;;;4970205;28;20492;-79
2023/09/17 12:19:35;;;;;;;1.47;0.80;;;31.80;84.70;;;;;;4974149;28;20869;-75
2023/09/17 12:22:08;;;;;;;2.83;2.23;;;31.90;84.30;;;;;;4974622;28;20267;-77
2023/09/17 12:25:18;;;;;;;1.47;0.80;;;31.80;85.10;;;;;;4984284;28;20457;-78
2023/09/17 12:27:50;;;;;;;1.43;0.80;;;31.90;84.70;;;;;;4985700;28;20495;-77
2023/09/17 12:30:17;;;;;;;1.40;0.80;;;32.00;85.20;;;;;;4970330;28;20305;-78
2023/09/17 12:32:44;;;;;;;1.47;0.80;;;32.10;86.30;;;;;;4973077;28;20480;-78
2023/09/17 12:35:13;;;;;;;1.43;0.80;;;32.10;84.40;;;;;;4977316;28;20472;-78
2023/09/17 12:37:40;;;;;;;1.47;0.83;;;32.00;84.30;;;;;;4973873;28;20489;-77
2023/09/17 12:40:08;;;;;;;1.50;0.80;;;32.00;83.70;;;;;;4969520;28;20491;-78
2023/09/17 12:42:35;;;;;;;1.47;0.90;;;31.90;83.30;;;;;;4976534;28;20512;-78
2023/09/17 12:45:04;;;;;;;1.47;0.80;;;31.80;84.80;;;;;;4980691;28;20299;-78
2023/09/17 12:47:31;;;;;;;1.50;0.80;;;31.80;85.60;;;;;;4969745;28;20598;-78
2023/09/17 12:50:00;;;;;;;1.43;0.80;;;31.80;84.50;;;;;;4971557;28;20481;-77
2023/09/17 12:52:27;;;;;;;1.43;0.80;;;31.80;84.80;;;;;;4974780;28;20583;-77
2023/09/17 12:54:59;;;;;;;1.40;0.80;;;31.70;83.00;;;;;;4971966;28;20465;-77
2023/09/17 12:57:26;;;;;;;1.47;0.80;;;31.60;84.20;;;;;;4974294;28;20512;-78
2023/09/17 12:59:54;;;;;;;1.47;0.90;;;31.50;86.40;;;;;;4978255;28;20489;-76
2023/09/17 13:02:30;;;;;;;1.47;0.90;;;31.60;84.70;;;;;;4969809;28;20590;-78
2023/09/17 13:04:56;;;;;;;1.47;0.90;;;31.50;84.80;;;;;;4976834;28;20468;-77
2023/09/17 13:07:25;;;;;;;1.47;0.80;;;31.50;84.10;;;;;;4972214;28;20547;-78
2023/09/17 13:09:55;;;;;;;1.50;1.10;;;31.40;84.60;;;;;;4976092;28;20516;-77
2023/09/17 13:12:23;;;;;;;1.50;1.00;;;31.30;84.70;;;;;;4970545;28;20998;-77
2023/09/17 13:14:51;;;;;;;1.47;0.80;;;31.20;84.30;;;;;;4977883;28;20457;-77